sensor_id;sensor_type;location;lat;lon;timestamp;P1;P2;P0
64861;PMS5003;62652;42.274;-71.436;2023-02-17T00:00:00;5.93;4.93;4.13
64861;PMS5003;62652;42.274;-71.436;2023-02-17T00:01:00;7.40;6.57;4.93
64861;PMS5003;62652;42.274;-71.436;2023-02-17T00:02:02;6.00;6.00;4.37
64861;PMS5003;62652;42.274;-71.436;2023-02-17T00:03:00;4.80;4.80;3.80
64861;PMS5003;62652;42.274;-71.436;2023-02-17T00:04:00;5.63;4.80;3.50
64861;PMS5003;62652;42.274;-71.436;2023-02-17T00:05:00;7.33;6.33;4.37
64861;PMS5003;62652;42.274;-71.436;2023-02-17T00:06:04;6.10;5.97;4.87
64861;PMS5003;62652;42.274;-71.436;2023-02-17T00:07:00;6.90;6.80;4.03
64861;PMS5003;62652;42.274;-71.436;2023-02-17T00:08:00;6.03;6.03;4.63
64861;PMS5003;62652;42.274;-71.436;2023-02-17T00:09:00;6.03;5.83;4.60
64861;PMS5003;62652;42.274;-71.436;2023-02-17T00:10:00;6.93;6.00;3.90
64861;PMS5003;62652;42.274;-71.436;2023-02-17T00:11:00;7.00;6.53;5.37
64861;PMS5003;62652;42.274;-71.436;2023-02-17T00:12:00;6.93;6.67;4.77
64861;PMS5003;62652;42.274;-71.436;2023-02-17T00:13:00;7.40;6.93;5.27
64861;PMS5003;62652;42.274;-71.436;2023-02-17T00:14:00;6.87;6.80;5.30
64861;PMS5003;62652;42.274;-71.436;2023-02-17T00:15:00;7.43;6.70;5.40
64861;PMS5003;62652;42.274;-71.436;2023-02-17T00:16:04;8.37;8.23;6.53
64861;PMS5003;62652;42.274;-71.436;2023-02-17T00:17:01;8.13;7.57;6.23
64861;PMS5003;62652;42.274;-71.436;2023-02-17T00:18:00;7.97;7.33;5.67
64861;PMS5003;62652;42.274;-71.436;2023-02-17T00:19:00;8.87;8.73;5.53
64861;PMS5003;62652;42.274;-71.436;2023-02-17T00:20:00;10.50;9.50;6.87
64861;PMS5003;62652;42.274;-71.436;2023-02-17T00:21:09;10.47;9.93;7.37
64861;PMS5003;62652;42.274;-71.436;2023-02-17T00:22:01;8.90;8.70;5.47
64861;PMS5003;62652;42.274;-71.436;2023-02-17T00:23:00;8.93;8.23;5.97
64861;PMS5003;62652;42.274;-71.436;2023-02-17T00:24:00;8.33;8.30;5.93
64861;PMS5003;62652;42.274;-71.436;2023-02-17T00:25:00;8.17;7.07;5.70
64861;PMS5003;62652;42.274;-71.436;2023-02-17T00:26:03;9.67;9.50;6.47
64861;PMS5003;62652;42.274;-71.436;2023-02-17T00:27:00;7.70;7.70;5.20
64861;PMS5003;62652;42.274;-71.436;2023-02-17T00:28:01;8.00;7.70;5.90
64861;PMS5003;62652;42.274;-71.436;2023-02-17T00:29:00;7.67;7.23;6.13
64861;PMS5003;62652;42.274;-71.436;2023-02-17T00:30:00;8.60;7.67;5.07
64861;PMS5003;62652;42.274;-71.436;2023-02-17T00:31:04;9.70;9.50;6.47
64861;PMS5003;62652;42.274;-71.436;2023-02-17T00:32:00;8.60;7.77;5.83
64861;PMS5003;62652;42.274;-71.436;2023-02-17T00:33:00;10.03;9.50;6.90
64861;PMS5003;62652;42.274;-71.436;2023-02-17T00:34:00;9.70;9.57;7.10
64861;PMS5003;62652;42.274;-71.436;2023-02-17T00:35:00;8.60;8.23;6.77
64861;PMS5003;62652;42.274;-71.436;2023-02-17T00:36:02;9.03;8.70;6.00
64861;PMS5003;62652;42.274;-71.436;2023-02-17T00:37:00;10.87;10.10;7.37
64861;PMS5003;62652;42.274;-71.436;2023-02-17T00:38:00;8.30;8.30;6.87
64861;PMS5003;62652;42.274;-71.436;2023-02-17T00:39:01;9.53;9.00;6.53
64861;PMS5003;62652;42.274;-71.436;2023-02-17T00:40:00;11.23;10.47;8.10
64861;PMS5003;62652;42.274;-71.436;2023-02-17T00:41:00;9.93;9.47;7.37
64861;PMS5003;62652;42.274;-71.436;2023-02-17T00:42:00;12.10;10.20;7.27
64861;PMS5003;62652;42.274;-71.436;2023-02-17T00:43:00;10.60;10.60;7.40
64861;PMS5003;62652;42.274;-71.436;2023-02-17T00:44:00;8.40;8.33;6.13
64861;PMS5003;62652;42.274;-71.436;2023-02-17T00:45:00;8.83;8.83;6.93
64861;PMS5003;62652;42.274;-71.436;2023-02-17T00:46:00;10.33;9.40;7.63
64861;PMS5003;62652;42.274;-71.436;2023-02-17T00:47:00;10.03;9.63;7.07
64861;PMS5003;62652;42.274;-71.436;2023-02-17T00:48:00;11.13;10.60;8.03
64861;PMS5003;62652;42.274;-71.436;2023-02-17T00:49:00;13.37;12.70;9.93
64861;PMS5003;62652;42.274;-71.436;2023-02-17T00:50:00;18.67;17.90;12.33
64861;PMS5003;62652;42.274;-71.436;2023-02-17T00:51:00;21.73;19.03;13.53
64861;PMS5003;62652;42.274;-71.436;2023-02-17T00:52:00;24.67;22.77;13.60
64861;PMS5003;62652;42.274;-71.436;2023-02-17T00:53:00;24.10;22.17;14.63
64861;PMS5003;62652;42.274;-71.436;2023-02-17T00:54:00;24.13;20.47;13.20
64861;PMS5003;62652;42.274;-71.436;2023-02-17T00:55:00;16.30;15.47;11.23
64861;PMS5003;62652;42.274;-71.436;2023-02-17T00:56:01;16.00;15.30;11.17
64861;PMS5003;62652;42.274;-71.436;2023-02-17T00:57:00;14.83;13.07;8.93
64861;PMS5003;62652;42.274;-71.436;2023-02-17T00:58:00;14.43;14.13;9.47
64861;PMS5003;62652;42.274;-71.436;2023-02-17T00:59:00;12.73;12.30;9.53
64861;PMS5003;62652;42.274;-71.436;2023-02-17T01:00:00;15.17;13.73;10.33
64861;PMS5003;62652;42.274;-71.436;2023-02-17T01:01:01;12.63;11.83;9.20
64861;PMS5003;62652;42.274;-71.436;2023-02-17T01:02:00;14.67;13.43;9.97
64861;PMS5003;62652;42.274;-71.436;2023-02-17T01:03:00;9.97;9.70;7.00
64861;PMS5003;62652;42.274;-71.436;2023-02-17T01:04:00;9.80;9.53;7.07
64861;PMS5003;62652;42.274;-71.436;2023-02-17T01:05:00;8.20;7.63;6.23
64861;PMS5003;62652;42.274;-71.436;2023-02-17T01:06:04;7.53;7.13;5.37
64861;PMS5003;62652;42.274;-71.436;2023-02-17T01:07:00;9.40;7.07;5.40
64861;PMS5003;62652;42.274;-71.436;2023-02-17T01:08:00;8.60;8.53;6.90
64861;PMS5003;62652;42.274;-71.436;2023-02-17T01:09:00;7.87;7.87;6.20
64861;PMS5003;62652;42.274;-71.436;2023-02-17T01:10:00;7.43;7.43;6.53
64861;PMS5003;62652;42.274;-71.436;2023-02-17T01:11:00;9.23;8.10;5.77
64861;PMS5003;62652;42.274;-71.436;2023-02-17T01:12:01;11.13;9.73;6.73
64861;PMS5003;62652;42.274;-71.436;2023-02-17T01:13:00;8.73;8.50;5.87
64861;PMS5003;62652;42.274;-71.436;2023-02-17T01:14:01;8.83;8.60;6.30
64861;PMS5003;62652;42.274;-71.436;2023-02-17T01:15:00;10.50;9.50;6.97
64861;PMS5003;62652;42.274;-71.436;2023-02-17T01:16:00;10.07;9.03;6.93
64861;PMS5003;62652;42.274;-71.436;2023-02-17T01:17:00;11.10;9.77;6.83
64861;PMS5003;62652;42.274;-71.436;2023-02-17T01:18:00;11.80;9.80;8.00
64861;PMS5003;62652;42.274;-71.436;2023-02-17T01:19:00;9.93;8.23;5.77
64861;PMS5003;62652;42.274;-71.436;2023-02-17T01:20:00;8.60;8.00;6.63
64861;PMS5003;62652;42.274;-71.436;2023-02-17T01:21:00;7.27;6.73;5.73
64861;PMS5003;62652;42.274;-71.436;2023-02-17T01:22:00;7.87;7.40;5.40
64861;PMS5003;62652;42.274;-71.436;2023-02-17T01:23:01;8.57;7.97;6.37
64861;PMS5003;62652;42.274;-71.436;2023-02-17T01:24:01;7.73;7.73;5.53
64861;PMS5003;62652;42.274;-71.436;2023-02-17T01:25:00;7.63;7.33;5.53
64861;PMS5003;62652;42.274;-71.436;2023-02-17T01:26:00;7.57;6.57;5.40
64861;PMS5003;62652;42.274;-71.436;2023-02-17T01:27:00;11.23;9.77;8.40
64861;PMS5003;62652;42.274;-71.436;2023-02-17T01:28:00;11.03;10.83;8.43
64861;PMS5003;62652;42.274;-71.436;2023-02-17T01:29:01;11.57;10.50;8.17
64861;PMS5003;62652;42.274;-71.436;2023-02-17T01:30:00;11.13;11.13;8.53
64861;PMS5003;62652;42.274;-71.436;2023-02-17T01:31:04;11.93;11.40;9.43
64861;PMS5003;62652;42.274;-71.436;2023-02-17T01:32:00;14.10;13.30;9.40
64861;PMS5003;62652;42.274;-71.436;2023-02-17T01:33:00;14.03;13.27;10.50
64861;PMS5003;62652;42.274;-71.436;2023-02-17T01:34:01;15.87;14.43;11.03
64861;PMS5003;62652;42.274;-71.436;2023-02-17T01:35:00;16.73;15.47;12.93
64861;PMS5003;62652;42.274;-71.436;2023-02-17T01:36:01;18.50;16.13;13.37
64861;PMS5003;62652;42.274;-71.436;2023-02-17T01:37:00;18.37;18.00;14.73
64861;PMS5003;62652;42.274;-71.436;2023-02-17T01:38:00;16.50;16.50;13.43
64861;PMS5003;62652;42.274;-71.436;2023-02-17T01:39:00;17.37;16.57;13.67
64861;PMS5003;62652;42.274;-71.436;2023-02-17T01:40:00;17.13;17.10;12.90
64861;PMS5003;62652;42.274;-71.436;2023-02-17T01:41:00;15.00;14.70;12.33
64861;PMS5003;62652;42.274;-71.436;2023-02-17T01:42:00;18.07;17.10;13.30
64861;PMS5003;62652;42.274;-71.436;2023-02-17T01:43:01;18.87;18.23;13.03
64861;PMS5003;62652;42.274;-71.436;2023-02-17T01:44:03;17.63;16.57;12.40
64861;PMS5003;62652;42.274;-71.436;2023-02-17T01:46:01;15.03;14.63;12.37
64861;PMS5003;62652;42.274;-71.436;2023-02-17T01:47:00;15.73;15.73;12.37
64861;PMS5003;62652;42.274;-71.436;2023-02-17T01:48:02;14.07;13.33;11.17
64861;PMS5003;62652;42.274;-71.436;2023-02-17T01:49:00;13.17;13.17;9.33
64861;PMS5003;62652;42.274;-71.436;2023-02-17T01:50:00;16.40;15.13;11.57
64861;PMS5003;62652;42.274;-71.436;2023-02-17T01:51:01;14.53;14.53;12.13
64861;PMS5003;62652;42.274;-71.436;2023-02-17T01:52:02;14.37;13.97;11.40
64861;PMS5003;62652;42.274;-71.436;2023-02-17T01:53:01;16.33;15.50;11.90
64861;PMS5003;62652;42.274;-71.436;2023-02-17T01:54:01;13.27;13.27;10.27
64861;PMS5003;62652;42.274;-71.436;2023-02-17T01:55:01;13.13;12.63;9.77
64861;PMS5003;62652;42.274;-71.436;2023-02-17T01:56:01;13.73;13.13;10.10
64861;PMS5003;62652;42.274;-71.436;2023-02-17T01:57:01;14.53;13.40;10.20
64861;PMS5003;62652;42.274;-71.436;2023-02-17T01:58:00;15.10;14.10;11.20
64861;PMS5003;62652;42.274;-71.436;2023-02-17T01:59:02;14.50;13.70;10.27
64861;PMS5003;62652;42.274;-71.436;2023-02-17T02:00:00;14.13;12.97;9.67
64861;PMS5003;62652;42.274;-71.436;2023-02-17T02:01:01;14.13;12.50;9.57
64861;PMS5003;62652;42.274;-71.436;2023-02-17T02:02:01;12.93;12.53;8.90
64861;PMS5003;62652;42.274;-71.436;2023-02-17T02:03:00;11.23;11.23;8.73
64861;PMS5003;62652;42.274;-71.436;2023-02-17T02:04:01;12.27;11.50;9.73
64861;PMS5003;62652;42.274;-71.436;2023-02-17T02:05:00;14.23;13.80;11.23
64861;PMS5003;62652;42.274;-71.436;2023-02-17T02:06:00;13.40;12.60;10.63
64861;PMS5003;62652;42.274;-71.436;2023-02-17T02:07:01;15.03;13.77;10.83
64861;PMS5003;62652;42.274;-71.436;2023-02-17T02:08:00;13.63;13.43;10.50
64861;PMS5003;62652;42.274;-71.436;2023-02-17T02:09:02;15.00;13.90;10.90
64861;PMS5003;62652;42.274;-71.436;2023-02-17T02:10:00;14.07;12.37;10.70
64861;PMS5003;62652;42.274;-71.436;2023-02-17T02:11:00;13.90;13.27;11.40
64861;PMS5003;62652;42.274;-71.436;2023-02-17T02:12:00;15.43;13.43;9.40
64861;PMS5003;62652;42.274;-71.436;2023-02-17T02:13:00;13.77;13.77;10.37
64861;PMS5003;62652;42.274;-71.436;2023-02-17T02:14:00;12.30;11.87;9.77
64861;PMS5003;62652;42.274;-71.436;2023-02-17T02:15:01;13.07;12.83;10.30
64861;PMS5003;62652;42.274;-71.436;2023-02-17T02:16:02;14.70;14.27;11.47
64861;PMS5003;62652;42.274;-71.436;2023-02-17T02:17:03;13.90;12.40;9.60
64861;PMS5003;62652;42.274;-71.436;2023-02-17T02:18:05;14.70;14.37;11.47
64861;PMS5003;62652;42.274;-71.436;2023-02-17T02:19:02;16.17;15.23;11.93
64861;PMS5003;62652;42.274;-71.436;2023-02-17T02:20:07;14.43;13.67;11.00
64861;PMS5003;62652;42.274;-71.436;2023-02-17T02:21:06;15.43;15.20;12.20
64861;PMS5003;62652;42.274;-71.436;2023-02-17T02:24:02;13.00;12.60;10.30
64861;PMS5003;62652;42.274;-71.436;2023-02-17T02:25:04;13.30;12.80;10.03
64861;PMS5003;62652;42.274;-71.436;2023-02-17T02:26:13;14.83;14.17;10.07
64861;PMS5003;62652;42.274;-71.436;2023-02-17T02:28:03;14.03;13.10;10.03
64861;PMS5003;62652;42.274;-71.436;2023-02-17T02:29:08;13.57;12.63;9.33
64861;PMS5003;62652;42.274;-71.436;2023-02-17T02:30:07;12.97;12.97;9.40
64861;PMS5003;62652;42.274;-71.436;2023-02-17T02:31:03;13.23;12.03;9.10
64861;PMS5003;62652;42.274;-71.436;2023-02-17T02:32:03;15.00;13.80;9.87
64861;PMS5003;62652;42.274;-71.436;2023-02-17T02:33:02;14.67;13.53;9.87
64861;PMS5003;62652;42.274;-71.436;2023-02-17T02:34:01;13.17;11.50;9.10
64861;PMS5003;62652;42.274;-71.436;2023-02-17T02:35:02;13.33;12.37;10.00
64861;PMS5003;62652;42.274;-71.436;2023-02-17T02:36:02;13.40;12.73;10.10
64861;PMS5003;62652;42.274;-71.436;2023-02-17T02:37:01;12.63;12.13;9.23
64861;PMS5003;62652;42.274;-71.436;2023-02-17T02:38:01;12.10;11.90;9.00
64861;PMS5003;62652;42.274;-71.436;2023-02-17T02:39:02;11.87;11.17;8.73
64861;PMS5003;62652;42.274;-71.436;2023-02-17T02:40:02;13.90;12.27;9.67
64861;PMS5003;62652;42.274;-71.436;2023-02-17T02:41:02;14.83;14.60;10.80
64861;PMS5003;62652;42.274;-71.436;2023-02-17T02:42:01;14.23;13.77;10.63
64861;PMS5003;62652;42.274;-71.436;2023-02-17T02:43:01;12.43;12.33;9.70
64861;PMS5003;62652;42.274;-71.436;2023-02-17T02:44:01;13.30;12.70;10.00
64861;PMS5003;62652;42.274;-71.436;2023-02-17T02:45:00;12.43;11.77;9.10
64861;PMS5003;62652;42.274;-71.436;2023-02-17T02:46:00;12.33;11.70;8.57
64861;PMS5003;62652;42.274;-71.436;2023-02-17T02:47:01;11.53;10.80;8.60
64861;PMS5003;62652;42.274;-71.436;2023-02-17T02:48:00;13.50;12.83;9.53
64861;PMS5003;62652;42.274;-71.436;2023-02-17T02:49:00;13.43;12.27;9.57
64861;PMS5003;62652;42.274;-71.436;2023-02-17T02:50:00;12.70;11.60;9.33
64861;PMS5003;62652;42.274;-71.436;2023-02-17T02:51:06;12.73;10.77;8.83
64861;PMS5003;62652;42.274;-71.436;2023-02-17T02:52:01;10.67;10.47;8.33
64861;PMS5003;62652;42.274;-71.436;2023-02-17T02:53:07;11.97;10.77;8.50
64861;PMS5003;62652;42.274;-71.436;2023-02-17T02:54:05;10.40;10.27;7.67
64861;PMS5003;62652;42.274;-71.436;2023-02-17T02:55:01;13.43;13.43;9.33
64861;PMS5003;62652;42.274;-71.436;2023-02-17T02:56:01;12.47;10.60;8.00
64861;PMS5003;62652;42.274;-71.436;2023-02-17T02:57:04;11.87;10.10;7.83
64861;PMS5003;62652;42.274;-71.436;2023-02-17T02:58:02;10.03;10.00;7.83
64861;PMS5003;62652;42.274;-71.436;2023-02-17T02:59:03;10.17;9.53;7.77
64861;PMS5003;62652;42.274;-71.436;2023-02-17T03:00:04;9.57;8.63;6.77
64861;PMS5003;62652;42.274;-71.436;2023-02-17T03:01:02;11.03;10.73;7.70
64861;PMS5003;62652;42.274;-71.436;2023-02-17T03:02:03;11.47;10.03;7.93
64861;PMS5003;62652;42.274;-71.436;2023-02-17T03:03:02;10.20;10.20;8.00
64861;PMS5003;62652;42.274;-71.436;2023-02-17T03:04:03;9.80;9.10;7.00
64861;PMS5003;62652;42.274;-71.436;2023-02-17T03:05:03;10.53;9.27;7.10
64861;PMS5003;62652;42.274;-71.436;2023-02-17T03:06:02;8.27;7.53;5.80
64861;PMS5003;62652;42.274;-71.436;2023-02-17T03:07:02;10.10;9.60;7.50
64861;PMS5003;62652;42.274;-71.436;2023-02-17T03:08:01;9.07;8.60;6.30
64861;PMS5003;62652;42.274;-71.436;2023-02-17T03:09:02;10.40;10.40;8.00
64861;PMS5003;62652;42.274;-71.436;2023-02-17T03:10:00;10.90;10.53;7.83
64861;PMS5003;62652;42.274;-71.436;2023-02-17T03:11:00;10.83;9.70;7.13
64861;PMS5003;62652;42.274;-71.436;2023-02-17T03:12:00;10.90;10.33;7.57
64861;PMS5003;62652;42.274;-71.436;2023-02-17T03:13:01;12.27;9.23;7.47
64861;PMS5003;62652;42.274;-71.436;2023-02-17T03:14:01;10.13;10.03;7.57
64861;PMS5003;62652;42.274;-71.436;2023-02-17T03:15:01;11.07;10.37;8.77
64861;PMS5003;62652;42.274;-71.436;2023-02-17T03:16:00;11.77;11.43;9.17
64861;PMS5003;62652;42.274;-71.436;2023-02-17T03:17:00;11.50;11.17;8.33
64861;PMS5003;62652;42.274;-71.436;2023-02-17T03:18:01;11.33;10.80;8.20
64861;PMS5003;62652;42.274;-71.436;2023-02-17T03:19:00;11.50;10.73;8.40
64861;PMS5003;62652;42.274;-71.436;2023-02-17T03:20:01;11.00;10.47;8.80
64861;PMS5003;62652;42.274;-71.436;2023-02-17T03:21:01;9.23;8.67;7.40
64861;PMS5003;62652;42.274;-71.436;2023-02-17T03:22:03;11.73;11.73;9.70
64861;PMS5003;62652;42.274;-71.436;2023-02-17T03:23:00;10.63;10.17;8.23
64861;PMS5003;62652;42.274;-71.436;2023-02-17T03:24:01;9.73;9.40;7.33
64861;PMS5003;62652;42.274;-71.436;2023-02-17T03:25:00;10.23;10.23;8.10
64861;PMS5003;62652;42.274;-71.436;2023-02-17T03:26:00;11.17;10.07;7.83
64861;PMS5003;62652;42.274;-71.436;2023-02-17T03:27:00;10.87;10.73;8.10
64861;PMS5003;62652;42.274;-71.436;2023-02-17T03:28:00;13.27;10.73;8.67
64861;PMS5003;62652;42.274;-71.436;2023-02-17T03:29:00;12.27;11.93;9.63
64861;PMS5003;62652;42.274;-71.436;2023-02-17T03:30:00;10.90;10.10;7.63
64861;PMS5003;62652;42.274;-71.436;2023-02-17T03:31:00;12.00;9.53;7.23
64861;PMS5003;62652;42.274;-71.436;2023-02-17T03:32:00;12.80;12.10;8.47
64861;PMS5003;62652;42.274;-71.436;2023-02-17T03:33:00;11.43;10.23;8.33
64861;PMS5003;62652;42.274;-71.436;2023-02-17T03:34:00;10.53;10.30;7.93
64861;PMS5003;62652;42.274;-71.436;2023-02-17T03:35:01;11.43;10.67;7.27
64861;PMS5003;62652;42.274;-71.436;2023-02-17T03:36:00;10.67;9.63;7.33
64861;PMS5003;62652;42.274;-71.436;2023-02-17T03:37:00;13.50;12.37;9.03
64861;PMS5003;62652;42.274;-71.436;2023-02-17T03:38:00;15.37;12.03;8.80
64861;PMS5003;62652;42.274;-71.436;2023-02-17T03:39:00;13.77;13.47;9.43
64861;PMS5003;62652;42.274;-71.436;2023-02-17T03:40:00;13.30;11.37;8.57
64861;PMS5003;62652;42.274;-71.436;2023-02-17T03:41:00;9.73;9.07;7.90
64861;PMS5003;62652;42.274;-71.436;2023-02-17T03:42:00;12.20;10.90;8.03
64861;PMS5003;62652;42.274;-71.436;2023-02-17T03:43:00;10.80;10.80;8.00
64861;PMS5003;62652;42.274;-71.436;2023-02-17T03:44:00;14.00;12.40;9.13
64861;PMS5003;62652;42.274;-71.436;2023-02-17T03:45:00;13.20;12.00;8.67
64861;PMS5003;62652;42.274;-71.436;2023-02-17T03:46:01;12.60;12.20;9.33
64861;PMS5003;62652;42.274;-71.436;2023-02-17T03:47:00;14.37;13.20;9.10
64861;PMS5003;62652;42.274;-71.436;2023-02-17T03:48:00;13.10;11.43;8.50
64861;PMS5003;62652;42.274;-71.436;2023-02-17T03:49:00;11.83;9.77;8.30
64861;PMS5003;62652;42.274;-71.436;2023-02-17T03:50:00;12.20;11.00;8.97
64861;PMS5003;62652;42.274;-71.436;2023-02-17T03:51:08;12.13;11.43;8.90
64861;PMS5003;62652;42.274;-71.436;2023-02-17T03:52:00;11.50;11.27;8.83
64861;PMS5003;62652;42.274;-71.436;2023-02-17T03:53:00;12.03;11.70;9.23
64861;PMS5003;62652;42.274;-71.436;2023-02-17T03:54:00;11.23;10.67;7.23
64861;PMS5003;62652;42.274;-71.436;2023-02-17T03:55:00;11.77;10.93;7.87
64861;PMS5003;62652;42.274;-71.436;2023-02-17T03:56:00;11.73;10.80;7.87
64861;PMS5003;62652;42.274;-71.436;2023-02-17T03:57:01;13.07;12.77;8.90
64861;PMS5003;62652;42.274;-71.436;2023-02-17T03:58:00;12.33;10.70;7.27
64861;PMS5003;62652;42.274;-71.436;2023-02-17T03:59:00;11.00;10.60;7.27
64861;PMS5003;62652;42.274;-71.436;2023-02-17T04:00:00;12.73;12.53;8.03
64861;PMS5003;62652;42.274;-71.436;2023-02-17T04:01:00;11.53;11.17;8.27
64861;PMS5003;62652;42.274;-71.436;2023-02-17T04:02:00;12.67;12.30;10.03
64861;PMS5003;62652;42.274;-71.436;2023-02-17T04:03:00;10.77;10.70;8.17
64861;PMS5003;62652;42.274;-71.436;2023-02-17T04:04:00;12.00;11.23;7.83
64861;PMS5003;62652;42.274;-71.436;2023-02-17T04:05:00;12.67;12.00;9.20
64861;PMS5003;62652;42.274;-71.436;2023-02-17T04:06:01;12.00;11.83;8.17
64861;PMS5003;62652;42.274;-71.436;2023-02-17T04:07:00;14.00;11.80;9.03
64861;PMS5003;62652;42.274;-71.436;2023-02-17T04:08:01;13.57;11.97;9.00
64861;PMS5003;62652;42.274;-71.436;2023-02-17T04:09:00;12.53;12.10;8.97
64861;PMS5003;62652;42.274;-71.436;2023-02-17T04:10:00;12.73;11.63;8.73
64861;PMS5003;62652;42.274;-71.436;2023-02-17T04:11:01;11.10;9.97;7.87
64861;PMS5003;62652;42.274;-71.436;2023-02-17T04:12:00;14.13;13.40;9.63
64861;PMS5003;62652;42.274;-71.436;2023-02-17T04:13:00;12.63;11.73;9.50
64861;PMS5003;62652;42.274;-71.436;2023-02-17T04:14:00;11.50;10.93;8.63
64861;PMS5003;62652;42.274;-71.436;2023-02-17T04:15:00;12.37;11.83;8.87
64861;PMS5003;62652;42.274;-71.436;2023-02-17T04:16:01;14.67;13.30;8.97
64861;PMS5003;62652;42.274;-71.436;2023-02-17T04:17:00;13.37;12.67;9.13
64861;PMS5003;62652;42.274;-71.436;2023-02-17T04:18:00;14.83;13.07;9.70
64861;PMS5003;62652;42.274;-71.436;2023-02-17T04:19:01;12.30;12.10;9.67
64861;PMS5003;62652;42.274;-71.436;2023-02-17T04:20:00;15.97;14.87;9.97
64861;PMS5003;62652;42.274;-71.436;2023-02-17T04:21:01;14.23;13.10;9.83
64861;PMS5003;62652;42.274;-71.436;2023-02-17T04:22:00;13.80;12.60;9.33
64861;PMS5003;62652;42.274;-71.436;2023-02-17T04:23:00;14.40;14.20;9.70
64861;PMS5003;62652;42.274;-71.436;2023-02-17T04:24:01;13.57;11.53;8.13
64861;PMS5003;62652;42.274;-71.436;2023-02-17T04:25:00;15.53;14.07;9.90
64861;PMS5003;62652;42.274;-71.436;2023-02-17T04:26:00;12.47;12.47;10.70
64861;PMS5003;62652;42.274;-71.436;2023-02-17T04:27:00;14.77;14.47;10.83
64861;PMS5003;62652;42.274;-71.436;2023-02-17T04:28:00;14.67;12.67;9.33
64861;PMS5003;62652;42.274;-71.436;2023-02-17T04:29:02;11.33;10.77;7.43
64861;PMS5003;62652;42.274;-71.436;2023-02-17T04:30:01;10.40;10.07;7.47
64861;PMS5003;62652;42.274;-71.436;2023-02-17T04:31:00;9.83;9.40;7.90
64861;PMS5003;62652;42.274;-71.436;2023-02-17T04:32:00;10.23;9.97;7.03
64861;PMS5003;62652;42.274;-71.436;2023-02-17T04:33:00;11.27;10.57;8.53
64861;PMS5003;62652;42.274;-71.436;2023-02-17T04:34:00;10.20;8.97;7.10
64861;PMS5003;62652;42.274;-71.436;2023-02-17T04:35:00;12.40;11.93;8.03
64861;PMS5003;62652;42.274;-71.436;2023-02-17T04:36:00;13.87;13.83;9.67
64861;PMS5003;62652;42.274;-71.436;2023-02-17T04:37:00;11.53;11.53;8.23
64861;PMS5003;62652;42.274;-71.436;2023-02-17T04:38:00;14.07;13.57;9.70
64861;PMS5003;62652;42.274;-71.436;2023-02-17T04:39:00;13.80;12.20;9.93
64861;PMS5003;62652;42.274;-71.436;2023-02-17T04:40:00;13.50;12.83;9.90
64861;PMS5003;62652;42.274;-71.436;2023-02-17T04:41:01;12.80;12.80;9.47
64861;PMS5003;62652;42.274;-71.436;2023-02-17T04:42:00;13.07;13.07;9.23
64861;PMS5003;62652;42.274;-71.436;2023-02-17T04:43:00;14.30;13.23;8.93
64861;PMS5003;62652;42.274;-71.436;2023-02-17T04:44:00;12.33;12.00;9.67
64861;PMS5003;62652;42.274;-71.436;2023-02-17T04:45:00;12.33;11.43;8.93
64861;PMS5003;62652;42.274;-71.436;2023-02-17T04:46:00;14.77;13.90;10.80
64861;PMS5003;62652;42.274;-71.436;2023-02-17T04:47:00;16.77;16.23;10.90
64861;PMS5003;62652;42.274;-71.436;2023-02-17T04:48:00;12.47;12.00;9.83
64861;PMS5003;62652;42.274;-71.436;2023-02-17T04:49:00;18.00;17.40;11.43
64861;PMS5003;62652;42.274;-71.436;2023-02-17T04:50:00;15.77;13.87;11.40
64861;PMS5003;62652;42.274;-71.436;2023-02-17T04:51:00;18.50;17.47;12.53
64861;PMS5003;62652;42.274;-71.436;2023-02-17T04:52:01;14.07;13.27;10.00
64861;PMS5003;62652;42.274;-71.436;2023-02-17T04:53:00;12.87;11.63;9.90
64861;PMS5003;62652;42.274;-71.436;2023-02-17T04:54:00;16.50;15.37;11.33
64861;PMS5003;62652;42.274;-71.436;2023-02-17T04:55:00;16.87;16.73;12.53
64861;PMS5003;62652;42.274;-71.436;2023-02-17T04:56:00;18.07;17.10;12.53
64861;PMS5003;62652;42.274;-71.436;2023-02-17T04:57:00;16.40;16.03;12.70
64861;PMS5003;62652;42.274;-71.436;2023-02-17T04:58:00;18.30;16.70;12.70
64861;PMS5003;62652;42.274;-71.436;2023-02-17T04:59:00;19.13;17.90;12.63
64861;PMS5003;62652;42.274;-71.436;2023-02-17T05:00:00;19.80;19.00;14.83
64861;PMS5003;62652;42.274;-71.436;2023-02-17T05:01:00;21.87;19.30;15.20
64861;PMS5003;62652;42.274;-71.436;2023-02-17T05:02:00;21.47;20.67;14.83
64861;PMS5003;62652;42.274;-71.436;2023-02-17T05:03:01;21.97;19.70;15.17
64861;PMS5003;62652;42.274;-71.436;2023-02-17T05:04:00;20.83;19.57;14.00
64861;PMS5003;62652;42.274;-71.436;2023-02-17T05:05:00;21.90;20.40;14.63
64861;PMS5003;62652;42.274;-71.436;2023-02-17T05:06:00;19.07;18.57;14.03
64861;PMS5003;62652;42.274;-71.436;2023-02-17T05:07:00;19.63;18.43;14.53
64861;PMS5003;62652;42.274;-71.436;2023-02-17T05:08:00;18.63;17.70;12.90
64861;PMS5003;62652;42.274;-71.436;2023-02-17T05:09:00;20.53;16.73;12.30
64861;PMS5003;62652;42.274;-71.436;2023-02-17T05:10:00;17.87;17.07;13.10
64861;PMS5003;62652;42.274;-71.436;2023-02-17T05:11:00;16.87;16.47;13.40
64861;PMS5003;62652;42.274;-71.436;2023-02-17T05:12:00;19.80;18.73;12.83
64861;PMS5003;62652;42.274;-71.436;2023-02-17T05:13:00;19.00;18.20;13.30
64861;PMS5003;62652;42.274;-71.436;2023-02-17T05:14:01;16.17;15.80;11.80
64861;PMS5003;62652;42.274;-71.436;2023-02-17T05:15:00;17.47;17.07;13.10
64861;PMS5003;62652;42.274;-71.436;2023-02-17T05:16:00;16.37;16.20;11.37
64861;PMS5003;62652;42.274;-71.436;2023-02-17T05:17:00;18.70;17.57;13.47
64861;PMS5003;62652;42.274;-71.436;2023-02-17T05:18:00;16.00;14.40;10.90
64861;PMS5003;62652;42.274;-71.436;2023-02-17T05:19:00;14.90;14.33;10.93
64861;PMS5003;62652;42.274;-71.436;2023-02-17T05:20:00;18.40;16.23;10.87
64861;PMS5003;62652;42.274;-71.436;2023-02-17T05:21:00;18.80;16.00;11.53
64861;PMS5003;62652;42.274;-71.436;2023-02-17T05:22:00;16.73;15.43;11.73
64861;PMS5003;62652;42.274;-71.436;2023-02-17T05:23:00;17.47;15.57;12.03
64861;PMS5003;62652;42.274;-71.436;2023-02-17T05:24:00;16.87;16.77;11.70
64861;PMS5003;62652;42.274;-71.436;2023-02-17T05:25:00;17.93;17.10;12.03
64861;PMS5003;62652;42.274;-71.436;2023-02-17T05:26:00;16.93;16.03;12.63
64861;PMS5003;62652;42.274;-71.436;2023-02-17T05:27:01;15.70;15.37;11.33
64861;PMS5003;62652;42.274;-71.436;2023-02-17T05:28:00;17.57;16.27;12.33
64861;PMS5003;62652;42.274;-71.436;2023-02-17T05:29:00;17.37;15.27;12.00
64861;PMS5003;62652;42.274;-71.436;2023-02-17T05:30:00;15.03;14.63;11.93
64861;PMS5003;62652;42.274;-71.436;2023-02-17T05:31:01;17.50;16.37;12.27
64861;PMS5003;62652;42.274;-71.436;2023-02-17T05:32:00;13.27;12.80;10.67
64861;PMS5003;62652;42.274;-71.436;2023-02-17T05:33:00;15.33;14.97;12.23
64861;PMS5003;62652;42.274;-71.436;2023-02-17T05:34:00;16.53;15.47;12.83
64861;PMS5003;62652;42.274;-71.436;2023-02-17T05:35:00;17.17;15.50;10.77
64861;PMS5003;62652;42.274;-71.436;2023-02-17T05:36:01;16.40;15.40;11.37